Time;durP1;ratioP1;P1;durP2;ratioP2;P2;SDS_P1;SDS_P2;PMS_P1;PMS_P2;Temp;Humidity;BMP_temperature;BMP_pressure;BME280_temperature;BME280_humidity;BME280_pressure;Samples;Min_cycle;Max_cycle;Signal;HPM_P1;HPM_P2
2023/05/12 00:01:21;;;;;;;19.63;14.25;;;12.60;99.90;;;;;;5052603;28;20048;-65
2023/05/12 00:03:47;;;;;;;19.73;13.52;;;12.60;99.90;;;;;;5051468;28;20413;-65
2023/05/12 00:06:12;;;;;;;20.05;15.15;;;12.60;99.90;;;;;;5051687;28;20040;-63
2023/05/12 00:08:38;;;;;;;24.75;15.73;;;12.60;99.90;;;;;;5050309;28;20033;-63
2023/05/12 00:11:04;;;;;;;20.10;15.40;;;12.60;99.90;;;;;;5051758;28;20120;-64
2023/05/12 00:13:29;;;;;;;25.73;17.10;;;12.60;99.90;;;;;;5046581;28;20291;-62
2023/05/12 00:15:57;;;;;;;24.80;17.00;;;12.60;99.90;;;;;;5051684;28;20082;-63
2023/05/12 00:18:24;;;;;;;23.38;16.80;;;12.60;99.90;;;;;;5050808;28;20408;-64
2023/05/12 00:20:49;;;;;;;27.15;16.88;;;12.60;99.90;;;;;;5051553;28;20045;-63
2023/05/12 00:23:15;;;;;;;20.85;15.05;;;12.60;99.90;;;;;;5050658;28;20108;-64
2023/05/12 00:25:40;;;;;;;24.08;17.38;;;12.60;99.90;;;;;;5051602;28;20077;-62
2023/05/12 00:28:06;;;;;;;25.03;17.47;;;12.60;99.90;;;;;;5050481;28;20449;-62
2023/05/12 00:30:31;;;;;;;25.35;16.67;;;12.60;99.90;;;;;;5050302;28;20307;-63
2023/05/12 00:32:57;;;;;;;22.80;17.02;;;12.60;99.90;;;;;;5050025;28;20064;-64
2023/05/12 00:35:23;;;;;;;22.02;16.40;;;12.60;99.90;;;;;;5051425;28;20052;-64
2023/05/12 00:37:49;;;;;;;24.00;17.52;;;12.60;99.90;;;;;;5048378;28;20032;-62
2023/05/12 00:40:14;;;;;;;27.67;18.77;;;12.60;99.90;;;;;;5051148;28;20033;-61
2023/05/12 00:42:40;;;;;;;26.13;17.75;;;12.60;99.90;;;;;;5051353;28;20352;-63
2023/05/12 00:45:06;;;;;;;29.50;18.77;;;12.60;99.90;;;;;;5050723;28;20032;-64
2023/05/12 00:47:32;;;;;;;;;;;12.60;99.90;;;;;;5050608;28;20167;-63
2023/05/12 00:49:58;;;;;;;25.42;16.58;;;12.60;99.90;;;;;;5051613;28;19916;-64
2023/05/12 00:52:24;;;;;;;29.42;19.52;;;12.60;99.90;;;;;;5050868;28;20069;-63
2023/05/12 00:54:50;;;;;;;28.52;19.23;;;12.50;99.90;;;;;;5050470;28;20482;-64
2023/05/12 00:57:15;;;;;;;30.77;20.13;;;12.60;99.90;;;;;;5051125;28;20636;-63
2023/05/12 00:59:41;;;;;;;33.17;20.48;;;12.60;99.90;;;;;;5048743;28;20051;-63
2023/05/12 01:02:07;;;;;;;33.83;22.30;;;12.60;99.90;;;;;;5051316;28;20410;-64
2023/05/12 01:04:34;;;;;;;35.03;22.80;;;12.60;99.90;;;;;;5050408;28;20367;-64
2023/05/12 01:07:08;;;;;;;35.83;22.73;;;12.60;99.90;;;;;;5050643;28;20655;-63
2023/05/12 01:09:35;;;;;;;36.22;23.70;;;12.60;99.90;;;;;;5049882;28;20041;-63
2023/05/12 01:12:01;;;;;;;;;;;12.60;99.90;;;;;;5051465;28;20089;-62
2023/05/12 01:14:26;;;;;;;38.03;24.70;;;12.60;99.90;;;;;;5050701;28;19966;-63
2023/05/12 01:16:54;;;;;;;38.50;23.42;;;12.60;99.90;;;;;;5051927;28;20036;-62
2023/05/12 01:19:42;;;;;;;42.17;25.95;;;12.60;99.90;;;;;;5051562;28;20035;-62
2023/05/12 01:22:09;;;;;;;40.33;26.17;;;12.60;99.90;;;;;;5052359;28;20055;-62
2023/05/12 01:24:59;;;;;;;43.58;27.10;;;12.60;99.90;;;;;;5050470;28;20625;-63
2023/05/12 01:27:27;;;;;;;46.67;28.48;;;12.60;99.90;;;;;;5049778;28;20040;-62
2023/05/12 01:29:56;;;;;;;45.33;26.77;;;12.60;99.90;;;;;;5050429;28;20086;-63
2023/05/12 01:32:22;;;;;;;45.05;27.55;;;12.60;99.90;;;;;;5050596;28;20099;-63
2023/05/12 01:34:49;;;;;;;48.92;30.23;;;12.60;99.90;;;;;;5049783;28;20037;-61
2023/05/12 01:37:15;;;;;;;45.80;29.70;;;12.60;99.90;;;;;;5049686;28;20037;-63
2023/05/12 01:39:41;;;;;;;44.28;29.63;;;12.60;99.90;;;;;;5049439;28;20222;-63
2023/05/12 01:42:06;;;;;;;52.38;31.42;;;12.60;99.90;;;;;;5050352;28;20520;-62
2023/05/12 01:44:32;;;;;;;52.17;32.80;;;12.60;99.90;;;;;;5049047;28;20396;-63
2023/05/12 01:46:58;;;;;;;55.22;31.38;;;12.60;99.90;;;;;;5048663;28;20051;-63
2023/05/12 01:49:23;;;;;;;53.33;32.72;;;12.60;99.90;;;;;;5048753;28;20040;-64
2023/05/12 01:51:49;;;;;;;61.67;34.10;;;12.60;99.90;;;;;;5050171;28;20055;-63
2023/05/12 01:54:15;;;;;;;55.90;33.88;;;12.60;99.90;;;;;;5049468;28;20116;-63
2023/05/12 01:56:40;;;;;;;60.47;34.42;;;12.60;99.90;;;;;;5049758;28;20405;-63
2023/05/12 01:59:06;;;;;;;59.08;34.70;;;12.60;99.90;;;;;;5048117;28;20041;-63
2023/05/12 02:01:32;;;;;;;63.28;35.25;;;12.60;99.90;;;;;;5049049;28;20493;-63
2023/05/12 02:03:58;;;;;;;60.80;34.78;;;12.60;99.90;;;;;;5049815;28;20079;-63
2023/05/12 02:06:25;;;;;;;57.47;35.38;;;12.60;99.90;;;;;;5049382;28;20059;-63
2023/05/12 02:08:50;;;;;;;61.53;35.97;;;12.60;99.90;;;;;;5049323;28;20059;-62
2023/05/12 02:11:16;;;;;;;71.38;38.92;;;12.60;99.90;;;;;;5049374;28;20045;-64
2023/05/12 02:13:45;;;;;;;62.03;36.15;;;12.60;99.90;;;;;;5048631;28;20056;-64
2023/05/12 02:16:11;;;;;;;59.17;34.50;;;12.60;99.90;;;;;;5049317;28;20107;-63
2023/05/12 02:18:37;;;;;;;62.80;35.95;;;12.60;99.90;;;;;;5049015;28;20506;-63
2023/05/12 02:21:03;;;;;;;64.10;37.30;;;12.60;99.90;;;;;;5044143;28;20044;-63
2023/05/12 02:23:28;;;;;;;69.07;37.47;;;12.70;99.90;;;;;;5048707;28;20044;-64
2023/05/12 02:25:54;;;;;;;57.80;35.78;;;12.70;99.90;;;;;;5048444;28;20490;-64
2023/05/12 02:28:20;;;;;;;63.25;36.28;;;12.70;99.90;;;;;;5034401;28;20033;-63
2023/05/12 02:30:49;;;;;;;64.38;37.55;;;12.70;99.90;;;;;;5037808;28;20151;-64
2023/05/12 02:33:16;;;;;;;68.47;39.58;;;12.70;99.90;;;;;;5049100;28;20060;-64
2023/05/12 02:35:43;;;;;;;65.40;37.38;;;12.70;99.90;;;;;;5049476;28;20033;-63
2023/05/12 02:38:09;;;;;;;72.78;40.03;;;12.70;99.90;;;;;;5047753;28;20170;-64
2023/05/12 02:40:34;;;;;;;66.32;37.50;;;12.70;99.90;;;;;;5049270;28;20090;-63
2023/05/12 02:43:00;;;;;;;66.13;38.42;;;12.70;99.90;;;;;;5047494;28;20741;-64
2023/05/12 02:45:26;;;;;;;62.88;37.45;;;12.70;99.90;;;;;;5049633;28;20048;-63
2023/05/12 02:47:51;;;;;;;58.22;36.58;;;12.80;99.90;;;;;;5048783;28;20048;-64
2023/05/12 02:50:17;;;;;;;63.88;39.47;;;12.70;99.90;;;;;;5049064;28;20051;-64
2023/05/12 02:52:43;;;;;;;58.00;38.35;;;12.80;99.90;;;;;;5049467;28;20041;-63
2023/05/12 02:55:08;;;;;;;67.88;41.95;;;12.70;99.90;;;;;;5048745;28;20525;-63
2023/05/12 02:57:34;;;;;;;58.33;36.25;;;12.80;99.90;;;;;;5047773;28;20037;-64
2023/05/12 03:00:00;;;;;;;66.80;38.75;;;12.70;99.90;;;;;;5049109;28;20436;-64
2023/05/12 03:02:26;;;;;;;61.65;36.90;;;12.70;99.90;;;;;;5049420;28;20041;-64
2023/05/12 03:04:52;;;;;;;62.10;37.47;;;12.70;99.90;;;;;;5048416;28;20087;-63
2023/05/12 03:07:17;;;;;;;59.63;38.15;;;12.70;99.90;;;;;;5048983;28;20044;-63
2023/05/12 03:09:43;;;;;;;60.05;36.10;;;12.60;99.90;;;;;;5049007;28;20124;-64
2023/05/12 03:12:09;;;;;;;58.65;35.03;;;12.60;99.90;;;;;;5051791;28;20136;-63
2023/05/12 03:14:34;;;;;;;61.60;36.75;;;12.60;99.90;;;;;;5052605;28;20048;-62
2023/05/12 03:17:00;;;;;;;62.85;37.55;;;12.60;99.90;;;;;;5052157;28;20140;-63
2023/05/12 03:19:28;;;;;;;61.53;37.17;;;12.50;99.90;;;;;;5052224;28;20037;-63
2023/05/12 03:21:54;;;;;;;62.58;37.50;;;12.50;99.90;;;;;;5052412;28;20041;-64
2023/05/12 03:24:20;;;;;;;56.15;37.00;;;12.50;99.90;;;;;;5052486;28;20098;-63
2023/05/12 03:26:46;;;;;;;64.47;37.92;;;12.50;99.90;;;;;;5050211;28;20055;-63
2023/05/12 03:29:13;;;;;;;68.90;39.97;;;12.60;99.90;;;;;;5051884;28;20076;-64
2023/05/12 03:31:38;;;;;;;65.65;39.72;;;12.60;99.90;;;;;;5050837;28;20043;-64
2023/05/12 03:34:04;;;;;;;63.15;38.40;;;12.50;99.90;;;;;;5052274;28;20045;-62
2023/05/12 03:36:30;;;;;;;57.90;36.45;;;12.60;99.90;;;;;;5050715;28;20037;-64
2023/05/12 03:38:56;;;;;;;64.97;39.60;;;12.60;99.90;;;;;;5051568;28;20037;-63
2023/05/12 03:41:21;;;;;;;62.78;39.80;;;12.60;99.90;;;;;;5051665;28;20332;-63
2023/05/12 03:43:47;;;;;;;63.22;39.40;;;12.60;99.90;;;;;;5051906;28;20497;-63
2023/05/12 03:46:13;;;;;;;66.93;41.80;;;12.70;99.90;;;;;;5050455;28;20049;-63
2023/05/12 03:48:39;;;;;;;59.60;37.40;;;12.70;99.90;;;;;;5050391;28;20052;-62
2023/05/12 03:51:04;;;;;;;61.70;38.60;;;12.70;99.90;;;;;;5051888;28;20040;-63
2023/05/12 03:53:30;;;;;;;68.15;42.08;;;12.70;99.90;;;;;;5052213;28;20043;-64
2023/05/12 03:55:56;;;;;;;60.55;38.95;;;12.80;99.90;;;;;;5051714;28;20131;-64
2023/05/12 03:58:23;;;;;;;71.80;41.10;;;12.80;99.90;;;;;;5051664;28;20037;-63
2023/05/12 04:00:49;;;;;;;59.05;37.47;;;12.80;99.90;;;;;;5052568;28;20033;-62
2023/05/12 04:03:15;;;;;;;63.22;39.10;;;12.80;99.90;;;;;;5058054;28;20175;-62
2023/05/12 04:05:41;;;;;;;61.42;39.28;;;12.80;99.90;;;;;;5053877;28;20049;-62
2023/05/12 04:08:08;;;;;;;65.78;40.00;;;12.90;99.90;;;;;;5050527;28;20040;-62
2023/05/12 04:10:40;;;;;;;;;;;12.90;99.90;;;;;;5050514;28;20048;-62
2023/05/12 04:13:07;;;;;;;61.33;36.65;;;12.90;99.90;;;;;;5051366;28;20092;-62
2023/05/12 04:15:34;;;;;;;60.38;38.15;;;12.90;99.90;;;;;;5051598;28;20041;-63
2023/05/12 04:18:01;;;;;;;61.85;38.85;;;12.90;99.90;;;;;;5050423;28;20033;-63
2023/05/12 04:20:26;;;;;;;69.57;40.63;;;13.00;99.90;;;;;;5050943;28;20075;-63
2023/05/12 04:22:52;;;;;;;62.87;39.50;;;13.00;99.90;;;;;;5050797;28;20457;-63
2023/05/12 04:25:17;;;;;;;57.83;37.25;;;13.00;99.90;;;;;;5049892;28;20292;-63
2023/05/12 04:27:43;;;;;;;58.92;38.03;;;13.00;99.90;;;;;;5050283;28;20460;-63
2023/05/12 04:30:08;;;;;;;53.78;35.22;;;13.00;99.90;;;;;;5051439;28;20128;-63
2023/05/12 04:32:35;;;;;;;53.67;34.05;;;13.00;99.90;;;;;;5051159;28;20509;-63
2023/05/12 04:35:00;;;;;;;57.65;37.00;;;13.10;99.90;;;;;;5051193;28;20543;-64
2023/05/12 04:37:26;;;;;;;61.28;37.63;;;13.10;99.90;;;;;;5049969;28;20121;-63
2023/05/12 04:39:52;;;;;;;57.10;37.22;;;13.10;99.90;;;;;;5050977;28;20033;-63
2023/05/12 04:42:18;;;;;;;56.70;37.90;;;13.10;99.90;;;;;;5050623;28;20068;-62
2023/05/12 04:44:45;;;;;;;56.63;37.65;;;13.10;99.90;;;;;;5051057;28;20495;-64
2023/05/12 04:47:11;;;;;;;54.83;35.42;;;13.10;99.90;;;;;;5050322;28;20387;-64
2023/05/12 04:49:36;;;;;;;54.22;35.42;;;13.10;99.90;;;;;;5049409;28;20155;-62
2023/05/12 04:52:04;;;;;;;55.00;35.35;;;13.20;99.90;;;;;;5050318;28;20037;-63
2023/05/12 04:54:30;;;;;;;48.50;34.22;;;13.20;99.90;;;;;;5050377;28;20084;-63
2023/05/12 04:56:56;;;;;;;49.90;33.50;;;13.20;99.90;;;;;;5050397;28;20086;-63
2023/05/12 04:59:22;;;;;;;54.55;35.80;;;13.20;99.90;;;;;;5050699;28;20033;-63
2023/05/12 05:01:47;;;;;;;50.72;33.40;;;13.20;99.90;;;;;;5045170;28;20036;-64
2023/05/12 05:04:13;;;;;;;49.92;34.53;;;13.20;99.90;;;;;;5049958;28;20124;-64
2023/05/12 05:06:39;;;;;;;53.75;34.35;;;13.20;99.90;;;;;;5039221;28;20133;-62
2023/05/12 05:09:04;;;;;;;48.90;32.00;;;13.20;99.90;;;;;;5046656;28;20072;-63
2023/05/12 05:11:30;;;;;;;54.10;36.05;;;13.20;99.90;;;;;;5048339;28;20040;-63
2023/05/12 05:13:55;;;;;;;55.25;33.53;;;13.20;99.90;;;;;;5048847;28;20128;-64
2023/05/12 05:16:21;;;;;;;54.58;35.03;;;13.20;99.90;;;;;;5050253;28;20052;-62
2023/05/12 05:18:47;;;;;;;48.83;33.58;;;13.20;99.90;;;;;;5049434;28;20041;-63
2023/05/12 05:21:13;;;;;;;53.25;33.70;;;13.30;99.90;;;;;;5012522;28;20560;-64
2023/05/12 05:23:39;;;;;;;44.25;32.67;;;13.30;99.90;;;;;;5046261;28;20043;-64
2023/05/12 05:26:05;;;;;;;;;;;13.30;99.90;;;;;;5037282;28;20049;-63
2023/05/12 05:28:31;;;;;;;49.80;32.25;;;13.30;99.90;;;;;;5041218;28;19924;-63
2023/05/12 05:30:56;;;;;;;50.28;31.00;;;13.30;99.90;;;;;;5038809;28;20161;-62
2023/05/12 05:33:22;;;;;;;49.15;32.70;;;13.30;99.90;;;;;;5039847;28;20044;-63
2023/05/12 05:35:48;;;;;;;46.92;31.50;;;13.30;99.90;;;;;;5047876;28;20051;-63
2023/05/12 05:38:14;;;;;;;44.05;30.50;;;13.30;99.90;;;;;;5048525;28;20041;-62
2023/05/12 05:40:39;;;;;;;49.70;33.05;;;13.40;99.90;;;;;;5049467;28;20450;-63
2023/05/12 05:43:05;;;;;;;51.17;34.85;;;13.30;99.90;;;;;;5049246;28;20494;-63
2023/05/12 05:45:31;;;;;;;54.42;35.05;;;13.40;99.90;;;;;;5049350;28;20068;-61
2023/05/12 05:47:57;;;;;;;49.92;33.08;;;13.40;99.90;;;;;;5048891;28;20087;-62
2023/05/12 05:50:22;;;;;;;45.40;33.03;;;13.40;99.90;;;;;;5045238;28;20033;-60
2023/05/12 05:52:48;;;;;;;55.88;36.03;;;13.40;99.90;;;;;;5044421;28;20029;-63
2023/05/12 05:55:14;;;;;;;46.22;31.33;;;13.40;99.90;;;;;;5049182;28;20066;-61
2023/05/12 05:57:40;;;;;;;52.00;32.97;;;13.40;99.90;;;;;;5047919;28;20143;-62
2023/05/12 06:00:09;;;;;;;54.47;35.95;;;13.50;99.90;;;;;;5035028;28;20041;-62
2023/05/12 06:02:35;;;;;;;45.67;33.03;;;13.50;99.90;;;;;;5049725;28;20116;-64
2023/05/12 06:05:01;;;;;;;;;;;13.50;99.90;;;;;;5045489;28;20120;-63
2023/05/12 06:07:26;;;;;;;46.78;31.50;;;13.50;99.90;;;;;;5049264;28;20004;-62
2023/05/12 06:09:53;;;;;;;43.70;29.73;;;13.50;99.90;;;;;;5047790;28;20133;-61
2023/05/12 06:12:18;;;;;;;;;;;13.60;99.90;;;;;;5050097;28;20075;-61
2023/05/12 06:14:44;;;;;;;53.35;34.15;;;13.60;99.90;;;;;;5048903;28;20338;-63
2023/05/12 06:17:10;;;;;;;55.67;36.67;;;13.60;99.90;;;;;;5045973;28;20060;-63
2023/05/12 06:19:35;;;;;;;55.75;35.17;;;13.70;99.90;;;;;;5046760;28;20045;-64
2023/05/12 06:22:01;;;;;;;52.53;34.47;;;13.70;99.90;;;;;;5049909;28;20036;-63
2023/05/12 06:24:27;;;;;;;52.45;35.85;;;13.70;99.90;;;;;;5048815;28;20508;-63
2023/05/12 06:26:52;;;;;;;55.40;36.63;;;13.70;99.90;;;;;;5049070;28;20041;-62
2023/05/12 06:29:20;;;;;;;57.25;37.33;;;13.70;99.90;;;;;;5037901;28;20116;-63
2023/05/12 06:31:45;;;;;;;55.78;36.75;;;13.80;99.90;;;;;;5029690;28;20052;-63
2023/05/12 06:34:11;;;;;;;53.70;34.78;;;13.80;99.90;;;;;;5037823;28;20041;-63
2023/05/12 06:36:37;;;;;;;55.65;34.67;;;13.80;99.90;;;;;;5045895;28;20064;-63
2023/05/12 06:39:03;;;;;;;59.25;36.15;;;13.90;99.90;;;;;;5045937;28;20045;-63
2023/05/12 06:41:29;;;;;;;54.70;35.53;;;13.90;99.90;;;;;;5055888;28;20502;-63
2023/05/12 06:43:55;;;;;;;59.10;37.47;;;13.90;99.90;;;;;;5050116;28;20524;-63
2023/05/12 06:46:20;;;;;;;56.83;35.75;;;14.00;99.90;;;;;;5042168;28;20400;-63
2023/05/12 06:48:46;;;;;;;55.25;36.13;;;14.00;99.90;;;;;;5045177;28;20162;-62
2023/05/12 06:51:12;;;;;;;47.63;34.08;;;14.10;99.90;;;;;;5052737;28;20127;-62
2023/05/12 06:53:40;;;;;;;49.33;33.50;;;14.10;99.90;;;;;;5052521;28;20032;-62
2023/05/12 06:56:06;;;;;;;50.38;33.80;;;14.10;99.90;;;;;;5051864;28;20103;-62
2023/05/12 06:58:31;;;;;;;53.33;34.78;;;14.20;99.90;;;;;;5044949;28;20037;-63
2023/05/12 07:00:57;;;;;;;48.65;33.97;;;14.20;99.90;;;;;;5052452;28;20044;-63
2023/05/12 07:03:23;;;;;;;49.38;34.17;;;14.20;99.90;;;;;;5051704;28;20033;-63
2023/05/12 07:05:48;;;;;;;49.42;34.33;;;14.30;99.90;;;;;;5052341;28;20059;-63
2023/05/12 07:08:14;;;;;;;45.90;32.80;;;14.20;99.90;;;;;;5051418;28;20624;-65
2023/05/12 07:10:40;;;;;;;47.10;32.15;;;14.30;99.90;;;;;;5052983;28;20041;-65
2023/05/12 07:13:06;;;;;;;43.90;32.08;;;14.30;99.90;;;;;;5052823;28;20036;-63
2023/05/12 07:15:31;;;;;;;51.03;33.60;;;14.30;99.90;;;;;;5052892;28;20045;-63
2023/05/12 07:17:57;;;;;;;47.50;32.75;;;14.40;99.90;;;;;;5051306;28;20116;-64
2023/05/12 07:20:23;;;;;;;46.58;32.72;;;14.40;99.90;;;;;;5053084;28;20039;-63
2023/05/12 07:22:50;;;;;;;45.42;34.72;;;14.40;99.90;;;;;;5051335;28;20047;-64
2023/05/12 07:25:16;;;;;;;47.75;33.20;;;14.50;99.90;;;;;;5052562;28;20429;-63
2023/05/12 07:27:42;;;;;;;53.50;34.00;;;14.50;99.90;;;;;;5051805;28;20041;-63
2023/05/12 07:30:07;;;;;;;44.35;30.67;;;14.40;99.90;;;;;;5052633;28;20037;-63
2023/05/12 07:32:33;;;;;;;43.83;32.00;;;14.50;99.90;;;;;;5052097;28;20072;-63
2023/05/12 07:34:59;;;;;;;46.10;32.42;;;14.60;99.90;;;;;;5052430;28;20391;-64
2023/05/12 07:37:25;;;;;;;48.28;31.42;;;14.60;99.90;;;;;;5051821;28;20079;-63
2023/05/12 07:39:51;;;;;;;46.83;32.72;;;14.70;99.90;;;;;;5052424;28;20171;-63
2023/05/12 07:42:16;;;;;;;48.30;33.42;;;14.70;99.90;;;;;;5052276;28;20049;-63
2023/05/12 07:44:42;;;;;;;40.63;30.98;;;14.80;99.90;;;;;;5052289;28;20049;-64
2023/05/12 07:47:08;;;;;;;;;;;14.80;99.90;;;;;;5052369;28;20045;-63
2023/05/12 07:49:34;;;;;;;41.35;30.50;;;14.90;99.90;;;;;;5051739;28;19940;-64
2023/05/12 07:51:59;;;;;;;45.67;32.10;;;14.80;99.90;;;;;;5052371;28;20088;-62
2023/05/12 07:54:25;;;;;;;41.90;32.53;;;14.90;99.90;;;;;;5051969;28;20132;-63
2023/05/12 07:56:51;;;;;;;44.15;32.13;;;14.90;99.90;;;;;;5050902;28;20044;-63
2023/05/12 07:59:16;;;;;;;44.95;32.42;;;15.00;99.90;;;;;;5052004;28;20033;-64
2023/05/12 08:01:42;;;;;;;41.83;30.70;;;15.10;99.90;;;;;;5052266;28;20045;-63
2023/05/12 08:04:08;;;;;;;38.72;32.85;;;15.10;99.90;;;;;;5052085;28;20045;-63
2023/05/12 08:06:33;;;;;;;38.42;28.65;;;15.20;99.90;;;;;;5051782;28;20493;-63
2023/05/12 08:08:59;;;;;;;44.75;33.03;;;15.30;99.90;;;;;;5050147;28;20045;-62
2023/05/12 08:11:25;;;;;;;39.78;30.50;;;15.40;99.90;;;;;;5051948;28;20044;-65
2023/05/12 08:13:51;;;;;;;41.38;31.67;;;15.50;99.90;;;;;;5051599;28;20417;-64
2023/05/12 08:16:17;;;;;;;41.90;30.17;;;15.50;99.90;;;;;;5051195;28;20044;-64
2023/05/12 08:18:43;;;;;;;37.75;28.85;;;15.60;99.90;;;;;;5051312;28;20049;-63
2023/05/12 08:21:09;;;;;;;37.85;29.25;;;15.70;99.90;;;;;;5051903;28;20037;-65
2023/05/12 08:23:36;;;;;;;38.92;29.38;;;15.70;99.90;;;;;;5051135;28;20043;-63
2023/05/12 08:26:02;;;;;;;38.10;30.30;;;15.80;99.90;;;;;;5050404;28;20081;-63
2023/05/12 08:28:28;;;;;;;;;;;15.80;99.90;;;;;;5051406;28;20410;-63
2023/05/12 08:30:54;;;;;;;46.40;31.48;;;15.80;99.90;;;;;;5051284;28;19921;-64
2023/05/12 08:33:19;;;;;;;34.05;28.08;;;15.90;99.90;;;;;;5049897;28;20123;-64
2023/05/12 08:35:45;;;;;;;36.67;29.08;;;16.00;99.90;;;;;;5049931;28;20037;-63
2023/05/12 08:38:11;;;;;;;32.63;27.88;;;16.00;99.90;;;;;;5050291;28;20043;-63
2023/05/12 08:41:14;;;;;;;37.63;28.75;;;16.10;99.90;;;;;;5050417;28;20070;-64
2023/05/12 08:43:45;;;;;;;34.92;28.75;;;16.20;99.90;;;;;;5050888;28;20053;-62
2023/05/12 08:46:11;;;;;;;30.38;26.00;;;16.20;99.90;;;;;;5049895;28;20075;-63
2023/05/12 08:48:39;;;;;;;30.02;26.00;;;16.30;99.90;;;;;;5050896;28;20037;-63
2023/05/12 08:51:10;;;;;;;32.83;27.15;;;16.30;99.90;;;;;;5049957;28;20047;-62
2023/05/12 08:53:37;;;;;;;34.40;27.90;;;16.40;99.90;;;;;;5050550;28;20120;-63
2023/05/12 08:56:05;;;;;;;30.67;26.02;;;16.50;99.90;;;;;;5050977;28;20099;-63
2023/05/12 08:58:32;;;;;;;32.78;26.40;;;16.60;99.90;;;;;;5050330;28;20064;-65
2023/05/12 09:00:59;;;;;;;30.85;25.50;;;16.70;99.90;;;;;;5051477;28;20115;-63
2023/05/12 09:03:27;;;;;;;33.25;26.27;;;16.80;99.90;;;;;;5050572;28;20049;-63
2023/05/12 09:05:56;;;;;;;31.15;26.92;;;17.00;99.90;;;;;;5049365;28;20049;-63
2023/05/12 09:08:23;;;;;;;36.08;26.85;;;17.10;99.90;;;;;;5049279;28;20041;-64
2023/05/12 09:10:50;;;;;;;31.08;26.33;;;17.10;99.90;;;;;;5051147;28;20041;-63
2023/05/12 09:13:22;;;;;;;33.05;27.58;;;17.20;99.90;;;;;;5050641;28;20067;-63
2023/05/12 09:15:52;;;;;;;29.23;25.50;;;17.40;99.90;;;;;;5050656;28;20409;-64
2023/05/12 09:18:17;;;;;;;33.15;26.95;;;17.50;99.90;;;;;;5051881;28;20036;-63
2023/05/12 09:20:44;;;;;;;29.17;25.98;;;17.60;99.90;;;;;;5054603;28;20125;-63
2023/05/12 09:23:18;;;;;;;26.67;23.52;;;17.80;99.90;;;;;;5055180;28;20051;-62
2023/05/12 09:25:45;;;;;;;26.15;23.13;;;18.00;99.90;;;;;;5051377;28;20069;-62
2023/05/12 09:28:11;;;;;;;23.48;21.02;;;18.10;99.90;;;;;;5048968;28;20044;-63
2023/05/12 09:30:40;;;;;;;;;;;18.20;99.90;;;;;;5050725;28;20102;-63
2023/05/12 09:33:11;;;;;;;24.48;21.40;;;18.30;99.90;;;;;;5048862;28;19960;-62
2023/05/12 09:35:44;;;;;;;15.90;14.38;;;18.40;99.90;;;;;;5049979;28;20037;-61
2023/05/12 09:38:12;;;;;;;20.63;17.20;;;18.50;99.90;;;;;;5049395;28;20041;-62
2023/05/12 09:40:38;;;;;;;18.90;16.33;;;18.60;99.90;;;;;;5050079;28;20409;-63
2023/05/12 09:43:06;;;;;;;;;;;18.80;99.90;;;;;;5050769;28;20429;-64
2023/05/12 09:45:33;;;;;;;20.08;17.52;;;18.90;99.90;;;;;;5044043;28;20386;-62
2023/05/12 09:48:11;;;;;;;17.75;14.68;;;19.10;99.90;;;;;;5028096;28;20236;-63
2023/05/12 09:50:44;;;;;;;18.70;16.70;;;19.20;99.90;;;;;;5045770;28;20049;-63
2023/05/12 09:53:10;;;;;;;19.30;16.75;;;19.30;99.90;;;;;;5029977;28;20517;-63
2023/05/12 09:55:35;;;;;;;;;;;19.40;99.90;;;;;;5030518;28;20041;-62
2023/05/12 09:58:07;;;;;;;15.60;14.00;;;19.50;99.90;;;;;;5029851;28;20387;-63
2023/05/12 10:00:34;;;;;;;18.80;16.98;;;19.60;99.90;;;;;;5029701;28;20650;-63
2023/05/12 10:03:01;;;;;;;17.90;16.10;;;19.70;99.90;;;;;;5030177;28;20297;-63
2023/05/12 10:05:28;;;;;;;19.15;17.17;;;19.80;99.90;;;;;;5029885;28;20045;-63
2023/05/12 10:07:58;;;;;;;17.52;15.73;;;20.00;99.90;;;;;;5029073;28;20443;-63
2023/05/12 10:10:26;;;;;;;18.13;15.70;;;20.10;99.90;;;;;;5028749;28;20052;-62
2023/05/12 10:12:52;;;;;;;15.00;13.60;;;20.20;99.90;;;;;;5029407;28;20327;-63
2023/05/12 10:15:19;;;;;;;13.45;12.18;;;20.30;99.90;;;;;;5029351;28;20514;-63
2023/05/12 10:17:47;;;;;;;14.77;13.23;;;20.40;99.90;;;;;;5028909;28;20069;-63
2023/05/12 10:20:14;;;;;;;13.40;12.10;;;20.50;99.90;;;;;;5029244;28;20037;-64
2023/05/12 10:22:40;;;;;;;12.20;10.98;;;20.60;99.90;;;;;;5029999;28;20041;-63
2023/05/12 10:25:10;;;;;;;11.10;9.63;;;20.70;99.90;;;;;;5029094;28;20052;-63
2023/05/12 10:27:36;;;;;;;10.95;9.82;;;20.90;99.90;;;;;;5027016;28;20064;-63
2023/05/12 10:30:03;;;;;;;9.32;8.43;;;20.90;99.90;;;;;;5028452;28;20052;-63
2023/05/12 10:32:29;;;;;;;12.13;8.10;;;21.10;99.90;;;;;;5029779;28;20116;-63
2023/05/12 10:35:05;;;;;;;;;;;21.20;99.90;;;;;;5029466;28;20156;-63
2023/05/12 10:37:33;;;;;;;10.80;9.80;;;21.30;99.90;;;;;;5027519;28;20417;-63
2023/05/12 10:40:01;;;;;;;9.00;8.13;;;21.40;99.90;;;;;;5029098;28;20406;-62
2023/05/12 10:42:35;;;;;;;8.52;7.72;;;21.50;99.90;;;;;;5028434;28;20494;-62
2023/05/12 10:45:03;;;;;;;10.05;8.10;;;21.40;99.90;;;;;;5029243;28;20125;-62
2023/05/12 10:47:36;;;;;;;10.05;9.15;;;21.40;99.90;;;;;;5028746;28;20116;-64
2023/05/12 10:50:02;;;;;;;11.57;9.48;;;21.40;99.90;;;;;;5029921;28;20034;-63
2023/05/12 10:52:27;;;;;;;;;;;21.40;99.90;;;;;;5029934;28;20048;-64
2023/05/12 10:55:00;;;;;;;10.25;9.32;;;21.50;99.90;;;;;;5029055;28;20389;-63
2023/05/12 10:57:25;;;;;;;10.45;9.45;;;21.60;99.90;;;;;;5028563;28;20041;-62
2023/05/12 11:00:00;;;;;;;;;;;21.70;99.90;;;;;;5029526;28;20122;-63
2023/05/12 11:02:29;;;;;;;10.25;9.35;;;21.80;99.90;;;;;;5029351;28;19927;-64
2023/05/12 11:05:03;;;;;;;9.73;8.75;;;21.90;99.90;;;;;;5028505;28;20120;-64
2023/05/12 11:07:31;;;;;;;9.20;8.40;;;22.00;99.90;;;;;;5028291;28;20049;-63
2023/05/12 11:09:59;;;;;;;11.55;10.55;;;22.10;99.90;;;;;;5029584;28;20042;-63
2023/05/12 11:12:34;;;;;;;9.48;8.55;;;22.30;99.90;;;;;;5029024;28;20045;-62
2023/05/12 11:15:02;;;;;;;11.23;10.23;;;22.30;99.90;;;;;;5029119;28;20104;-64
2023/05/12 11:17:28;;;;;;;10.85;9.75;;;22.40;99.90;;;;;;5027814;28;20041;-64
2023/05/12 11:19:54;;;;;;;;;;;22.60;99.90;;;;;;5030097;28;20039;-63
2023/05/12 11:22:21;;;;;;;10.60;9.60;;;22.60;99.90;;;;;;5029617;28;19921;-63
2023/05/12 11:24:48;;;;;;;10.48;9.48;;;22.70;99.90;;;;;;5028950;28;20041;-63
2023/05/12 11:27:16;;;;;;;9.23;8.30;;;22.70;99.90;;;;;;5028785;28;20038;-62
2023/05/12 11:29:42;;;;;;;10.27;8.88;;;22.70;99.90;;;;;;5028458;28;20406;-63
2023/05/12 11:32:10;;;;;;;9.65;8.85;;;22.70;99.90;;;;;;5031107;28;20045;-62
2023/05/12 11:34:35;;;;;;;8.30;7.50;;;22.70;99.90;;;;;;5032542;28;20037;-63
2023/05/12 11:37:02;;;;;;;;;;;22.80;99.90;;;;;;5031252;28;20119;-64
2023/05/12 11:39:31;;;;;;;8.73;7.93;;;22.90;99.90;;;;;;5032192;28;20391;-63
2023/05/12 11:42:05;;;;;;;8.70;7.90;;;22.90;99.90;;;;;;5032920;28;20069;-65
2023/05/12 11:44:31;;;;;;;13.75;10.48;;;23.00;99.90;;;;;;5032274;28;20494;-64
2023/05/12 11:47:10;;;;;;;;;;;23.10;99.90;;;;;;5032699;28;20124;-63
2023/05/12 11:49:55;;;;;;;10.43;9.48;;;23.20;99.90;;;;;;5032007;28;20373;-64
2023/05/12 11:52:23;;;;;;;10.43;9.43;;;23.30;99.90;;;;;;5031187;28;20045;-63
2023/05/12 11:54:50;;;;;;;10.57;9.07;;;23.30;99.90;;;;;;5032124;28;20125;-63
2023/05/12 11:57:32;;;;;;;10.88;8.50;;;23.40;99.90;;;;;;5031663;28;20053;-64
2023/05/12 12:00:05;;;;;;;11.82;10.73;;;23.50;99.90;;;;;;5031333;28;20072;-64
2023/05/12 12:02:32;;;;;;;11.57;10.52;;;23.50;99.90;;;;;;5034736;28;20095;-62
2023/05/12 12:04:58;;;;;;;12.15;10.15;;;23.50;99.90;;;;;;5036729;28;20335;-63
2023/05/12 12:07:33;;;;;;;13.82;11.30;;;23.60;99.90;;;;;;5036708;28;20045;-65
2023/05/12 12:10:13;;;;;;;9.70;8.43;;;23.60;99.90;;;;;;5032195;28;20044;-63
2023/05/12 12:12:40;;;;;;;8.95;6.63;;;23.60;99.90;;;;;;5032258;28;20049;-63
2023/05/12 12:15:06;;;;;;;7.55;6.95;;;23.70;99.90;;;;;;5031771;28;20037;-63
2023/05/12 12:17:32;;;;;;;7.68;6.93;;;23.80;99.90;;;;;;5030599;28;20535;-62
2023/05/12 12:19:57;;;;;;;8.85;8.05;;;23.80;99.90;;;;;;5031647;28;20038;-63
2023/05/12 12:22:23;;;;;;;9.75;8.85;;;23.80;99.10;;;;;;5031917;28;20513;-64
2023/05/12 12:24:49;;;;;;;9.85;8.85;;;23.80;99.80;;;;;;5031664;28;20525;-64
2023/05/12 12:27:14;;;;;;;10.77;9.77;;;23.70;99.10;;;;;;5031542;28;20076;-64
2023/05/12 12:29:40;;;;;;;10.95;9.85;;;23.60;99.70;;;;;;5029620;28;20111;-63
2023/05/12 12:32:07;;;;;;;11.88;10.55;;;23.70;99.80;;;;;;5030219;28;20045;-64